Time;durP1;ratioP1;P1;durP2;ratioP2;P2;SDS_P1;SDS_P2;PMS_P1;PMS_P2;Temp;Humidity;BMP_temperature;BMP_pressure;BME280_temperature;BME280_humidity;BME280_pressure;Samples;Min_cycle;Max_cycle;Signal;HPM_P1;HPM_P2
2022/02/23 10:11:48;;;;;;;13.37;12.20;;;16.20;95.50;;;;;;5087327;27;20386;-76
2022/02/23 10:14:15;;;;;;;12.97;12.13;;;17.10;90.60;;;;;;5087529;28;20534;-76
2022/02/23 10:16:43;;;;;;;12.83;12.20;;;17.10;89.40;;;;;;5087437;28;20446;-76
2022/02/23 10:19:13;;;;;;;13.33;12.43;;;17.70;89.20;;;;;;5087143;28;20450;-76
2022/02/23 10:21:50;;;;;;;14.00;12.97;;;17.80;86.70;;;;;;5087176;28;20451;-76
2022/02/23 10:24:31;;;;;;;14.00;13.10;;;17.90;87.00;;;;;;5087117;28;20559;-76
2022/02/23 10:27:02;;;;;;;13.40;12.30;;;18.50;83.30;;;;;;5087467;28;20442;-76
2022/02/23 10:29:32;;;;;;;14.50;13.50;;;18.70;82.10;;;;;;5087144;28;20898;-76
2022/02/23 10:32:01;;;;;;;14.53;13.23;;;17.80;82.00;;;;;;5086880;28;20454;-76
2022/02/23 10:34:28;;;;;;;13.90;12.90;;;17.60;84.50;;;;;;5087367;28;20446;-77
2022/02/23 10:36:59;;;;;;;14.10;13.20;;;18.20;83.50;;;;;;5086883;28;20457;-76
2022/02/23 10:39:35;;;;;;;13.10;12.17;;;18.40;82.10;;;;;;5087137;28;20516;-76
2022/02/23 10:42:09;;;;;;;12.70;12.00;;;18.40;80.00;;;;;;5086934;28;20483;-76
2022/02/23 10:44:40;;;;;;;12.50;11.53;;;17.90;82.60;;;;;;5086681;28;20730;-76
2022/02/23 10:47:08;;;;;;;12.60;11.90;;;17.40;85.00;;;;;;5086701;28;20442;-76
2022/02/23 10:49:34;;;;;;;12.80;11.90;;;17.30;85.30;;;;;;5086696;28;20798;-77
2022/02/23 10:52:06;;;;;;;12.50;11.80;;;17.10;84.50;;;;;;5086585;28;20454;-76
2022/02/23 10:54:35;;;;;;;12.43;11.73;;;16.40;87.20;;;;;;5086504;28;20549;-76
2022/02/23 10:57:16;;;;;;;15.17;14.00;;;16.70;87.30;;;;;;5086592;28;20450;-76
2022/02/23 10:59:45;;;;;;;12.90;12.10;;;16.70;87.20;;;;;;5086446;28;20945;-76
2022/02/23 11:02:12;;;;;;;12.50;11.90;;;16.10;89.40;;;;;;5086179;28;20474;-76
2022/02/23 11:04:39;;;;;;;13.00;12.10;;;16.40;89.10;;;;;;5086290;28;21009;-76
2022/02/23 11:07:06;;;;;;;15.40;13.93;;;15.70;90.20;;;;;;5086094;28;20462;-77
2022/02/23 11:09:34;;;;;;;12.57;11.40;;;15.10;90.80;;;;;;5085816;28;20490;-76
2022/02/23 11:12:03;;;;;;;12.90;12.03;;;15.30;91.30;;;;;;5076384;28;20934;-76
2022/02/23 11:14:32;;;;;;;13.10;12.30;;;16.60;89.20;;;;;;5072886;28;20473;-76
2022/02/23 11:17:01;;;;;;;14.20;13.10;;;17.00;85.30;;;;;;5072673;28;20443;-78
2022/02/23 11:19:32;;;;;;;12.47;11.67;;;17.30;84.60;;;;;;5072690;28;20719;-77
2022/02/23 11:22:02;;;;;;;13.30;12.40;;;17.10;85.50;;;;;;5072589;28;20443;-77
2022/02/23 11:24:28;;;;;;;12.30;11.10;;;17.20;85.80;;;;;;5072660;28;20454;-77
2022/02/23 11:26:58;;;;;;;14.17;13.00;;;17.30;83.60;;;;;;5072331;28;20451;-77
2022/02/23 11:29:33;;;;;;;13.20;12.30;;;16.70;85.30;;;;;;5072277;28;20834;-78
2022/02/23 11:32:04;;;;;;;12.97;12.00;;;17.20;84.30;;;;;;5072493;28;20446;-77
2022/02/23 11:34:31;;;;;;;13.03;12.00;;;16.80;85.00;;;;;;5072284;28;20443;-77
2022/02/23 11:36:58;;;;;;;13.17;12.13;;;17.00;85.00;;;;;;5072441;28;20450;-77
2022/02/23 11:39:27;;;;;;;18.90;12.63;;;16.90;85.20;;;;;;5071929;28;20443;-76
2022/02/23 11:41:56;;;;;;;12.50;11.77;;;17.40;83.00;;;;;;5072073;28;20454;-76
2022/02/23 11:44:26;;;;;;;12.73;12.00;;;17.90;83.00;;;;;;5072018;28;20450;-76
2022/02/23 11:47:13;;;;;;;12.70;11.80;;;18.10;80.10;;;;;;5071758;28;20447;-77
2022/02/23 11:49:53;;;;;;;11.70;10.90;;;17.60;80.60;;;;;;5071678;28;20463;-77
2022/02/23 11:52:22;;;;;;;16.10;11.80;;;17.50;80.10;;;;;;5071807;28;20454;-77
2022/02/23 11:54:59;;;;;;;12.27;11.37;;;17.20;81.10;;;;;;5071891;28;20451;-77
2022/02/23 11:57:44;;;;;;;12.80;11.90;;;17.10;79.80;;;;;;5071825;28;20553;-76
2022/02/23 12:00:12;;;;;;;12.33;11.50;;;17.00;80.60;;;;;;5072026;28;20444;-76
2022/02/23 12:02:41;;;;;;;12.00;11.30;;;16.80;80.90;;;;;;5071379;28;20471;-77
2022/02/23 12:05:10;;;;;;;13.03;12.00;;;17.60;78.90;;;;;;5071407;28;20509;-76
2022/02/23 12:07:47;;;;;;;14.07;12.33;;;18.60;75.90;;;;;;5071407;28;20841;-76
2022/02/23 12:10:14;;;;;;;12.97;11.87;;;19.20;75.10;;;;;;5071479;28;20487;-75
2022/02/23 12:12:42;;;;;;;10.87;10.00;;;18.80;76.10;;;;;;5071409;28;20451;-76
2022/02/23 12:15:10;;;;;;;12.87;11.97;;;18.30;76.10;;;;;;5071422;28;20827;-76
2022/02/23 12:17:59;;;;;;;13.17;12.30;;;17.90;77.50;;;;;;5071598;28;20465;-76
2022/02/23 12:21:10;;;;;;;12.47;11.90;;;17.90;77.00;;;;;;5071584;28;20946;-76
2022/02/23 12:23:38;;;;;;;12.47;11.87;;;18.80;76.30;;;;;;5008470;28;20442;-77
2022/02/23 12:26:17;;;;;;;14.20;13.00;;;20.40;70.70;;;;;;5009048;28;20839;-77
2022/02/23 12:28:47;;;;;;;12.70;11.80;;;21.60;68.60;;;;;;5047113;28;20454;-78
2022/02/23 12:31:17;;;;;;;11.83;11.03;;;20.30;68.60;;;;;;5071595;28;20487;-78
2022/02/23 12:33:47;;;;;;;12.40;11.60;;;20.60;69.50;;;;;;5071161;28;20548;-77
2022/02/23 12:36:23;;;;;;;12.00;11.27;;;19.80;68.50;;;;;;5071271;28;20454;-78
2022/02/23 12:38:50;;;;;;;12.83;11.87;;;18.40;72.10;;;;;;5071091;28;20504;-79
2022/02/23 12:41:20;;;;;;;11.63;10.97;;;17.60;75.10;;;;;;5070827;28;20562;-76
2022/02/23 12:43:56;;;;;;;11.77;10.93;;;17.60;75.00;;;;;;5070850;28;20455;-77
2022/02/23 12:46:23;;;;;;;11.90;10.93;;;17.70;75.30;;;;;;5070787;28;20455;-77
2022/02/23 12:48:55;;;;;;;11.83;11.13;;;17.40;74.90;;;;;;5070506;28;20473;-78
2022/02/23 12:51:23;;;;;;;12.37;11.50;;;16.90;77.00;;;;;;5070664;28;20483;-78
2022/02/23 12:53:53;;;;;;;11.30;10.50;;;17.10;76.50;;;;;;5070774;28;20475;-78
2022/02/23 12:56:21;;;;;;;12.30;11.50;;;17.20;75.90;;;;;;5070657;28;20462;-77
2022/02/23 12:58:50;;;;;;;13.13;12.40;;;18.00;75.10;;;;;;5070681;28;20451;-77
2022/02/23 13:01:18;;;;;;;12.60;11.90;;;19.10;71.00;;;;;;5070549;28;20463;-76
2022/02/23 13:03:45;;;;;;;12.87;12.10;;;18.10;72.00;;;;;;5070762;28;20451;-78
2022/02/23 13:06:13;;;;;;;12.17;11.40;;;18.40;72.00;;;;;;5070885;28;20466;-77
2022/02/23 13:08:41;;;;;;;13.47;12.60;;;19.00;71.10;;;;;;5070316;28;20529;-79
2022/02/23 13:11:08;;;;;;;12.50;11.80;;;19.40;69.20;;;;;;5070178;28;20498;-79
2022/02/23 13:13:39;;;;;;;13.07;12.43;;;19.40;68.70;;;;;;5070607;28;20443;-79
2022/02/23 13:16:07;;;;;;;12.13;11.43;;;20.30;68.20;;;;;;5070396;28;20443;-80
2022/02/23 13:18:38;;;;;;;12.50;11.60;;;20.50;66.20;;;;;;5070026;28;20488;-80
2022/02/23 13:21:09;;;;;;;12.43;11.83;;;20.30;64.80;;;;;;5070066;28;20981;-79
2022/02/23 13:23:56;;;;;;;11.20;10.60;;;19.90;64.00;;;;;;5070098;28;21056;-79
2022/02/23 13:26:30;;;;;;;12.27;11.37;;;19.20;66.50;;;;;;5070302;28;20447;-79
2022/02/23 13:29:09;;;;;;;11.83;11.00;;;19.60;67.00;;;;;;5070187;28;20447;-80
2022/02/23 13:31:39;;;;;;;12.63;11.57;;;19.30;66.20;;;;;;5070177;28;20494;-81
2022/02/23 13:34:26;;;;;;;12.33;11.63;;;19.30;65.70;;;;;;5069331;28;20675;-79
2022/02/23 13:36:56;;;;;;;14.03;13.03;;;17.90;68.00;;;;;;5069477;28;20465;-80
2022/02/23 13:39:26;;;;;;;12.20;11.50;;;18.00;69.60;;;;;;5069794;28;20815;-80
2022/02/23 13:42:05;;;;;;;12.37;11.33;;;18.40;68.50;;;;;;5069630;28;20465;-79
2022/02/23 13:44:35;;;;;;;11.00;10.27;;;17.00;70.60;;;;;;5069673;28;20486;-79
2022/02/23 13:47:07;;;;;;;10.70;10.10;;;15.70;75.00;;;;;;5069617;28;20455;-78
2022/02/23 13:49:35;;;;;;;11.73;10.80;;;14.90;76.70;;;;;;5069619;28;20446;-79
2022/02/23 13:52:03;;;;;;;9.70;9.20;;;14.50;79.80;;;;;;5069694;28;20482;-78
2022/02/23 13:54:33;;;;;;;10.67;10.00;;;13.90;82.50;;;;;;5069896;28;20485;-79
2022/02/23 13:56:59;;;;;;;10.43;9.73;;;13.70;84.70;;;;;;5069854;28;20455;-78
2022/02/23 13:59:27;;;;;;;10.50;9.80;;;13.50;85.20;;;;;;5069673;28;20458;-78
2022/02/23 14:01:58;;;;;;;9.60;9.10;;;13.40;85.90;;;;;;5069404;28;20474;-79
2022/02/23 14:04:38;;;;;;;10.13;9.40;;;13.30;86.50;;;;;;5069563;28;20447;-78
2022/02/23 14:07:05;;;;;;;10.60;9.77;;;13.20;87.90;;;;;;5069567;28;20439;-78
2022/02/23 14:09:37;;;;;;;10.40;9.57;;;13.10;88.00;;;;;;5069344;28;20439;-78
2022/02/23 14:12:10;;;;;;;10.23;9.60;;;13.00;88.50;;;;;;5069698;28;20907;-76
2022/02/23 14:14:38;;;;;;;10.27;9.33;;;13.00;90.00;;;;;;5069722;28;20512;-76
2022/02/23 14:17:18;;;;;;;10.90;10.20;;;13.00;90.30;;;;;;5069336;28;20451;-76
2022/02/23 14:19:46;;;;;;;10.03;9.33;;;13.00;90.50;;;;;;5069593;28;20451;-76
2022/02/23 14:22:19;;;;;;;11.10;10.10;;;13.10;90.70;;;;;;5069732;28;20949;-76
2022/02/23 14:24:56;;;;;;;10.40;9.70;;;13.20;90.30;;;;;;5069657;28;20466;-75
2022/02/23 14:27:28;;;;;;;11.27;9.80;;;13.10;89.80;;;;;;5069444;28;20459;-76
2022/02/23 14:29:55;;;;;;;10.93;9.97;;;13.10;90.10;;;;;;5069415;28;20805;-75
2022/02/23 14:32:25;;;;;;;11.17;10.03;;;13.10;90.50;;;;;;5069346;28;20841;-76
2022/02/23 14:34:53;;;;;;;10.03;9.40;;;13.00;90.30;;;;;;5069176;28;20451;-76
2022/02/23 14:37:20;;;;;;;10.67;10.00;;;13.00;90.30;;;;;;5069210;28;20542;-76
2022/02/23 14:39:48;;;;;;;10.43;9.60;;;13.00;90.50;;;;;;5069386;28;20958;-75
2022/02/23 14:42:14;;;;;;;11.07;10.07;;;13.00;90.80;;;;;;5069534;28;20443;-75
2022/02/23 14:44:41;;;;;;;11.70;10.80;;;12.90;90.70;;;;;;5068908;28;20489;-75
2022/02/23 14:47:08;;;;;;;10.63;10.10;;;12.90;90.80;;;;;;5071333;28;20478;-75
2022/02/23 14:49:35;;;;;;;10.87;10.10;;;12.90;90.70;;;;;;5073063;28;21062;-76
2022/02/23 14:52:01;;;;;;;11.07;10.47;;;12.90;90.70;;;;;;5072994;28;20482;-77
2022/02/23 14:54:28;;;;;;;11.33;10.40;;;12.90;90.50;;;;;;5073381;28;20451;-77
2022/02/23 14:56:56;;;;;;;10.77;10.27;;;12.90;90.40;;;;;;5073038;28;20446;-76
2022/02/23 14:59:23;;;;;;;10.23;9.60;;;12.90;90.90;;;;;;5072947;28;20451;-76
2022/02/23 15:01:50;;;;;;;10.87;10.10;;;12.90;90.90;;;;;;5072720;28;20809;-76
2022/02/23 15:04:17;;;;;;;10.13;9.40;;;12.90;90.80;;;;;;5072734;28;20451;-76
2022/02/23 15:06:44;;;;;;;10.80;9.50;;;12.90;91.10;;;;;;5072926;28;20446;-77
2022/02/23 15:09:10;;;;;;;10.23;9.40;;;12.90;90.60;;;;;;5072644;28;20443;-76
2022/02/23 15:11:37;;;;;;;9.77;9.17;;;12.80;90.70;;;;;;5072227;28;21009;-77
2022/02/23 15:14:05;;;;;;;11.77;10.87;;;12.70;90.80;;;;;;5072660;28;20447;-76
2022/02/23 15:16:32;;;;;;;10.17;9.47;;;12.70;91.20;;;;;;5072279;28;20454;-76
2022/02/23 15:18:58;;;;;;;9.87;9.10;;;12.60;91.30;;;;;;5072528;28;20455;-75
2022/02/23 15:21:25;;;;;;;10.00;9.40;;;12.60;91.50;;;;;;5072276;28;20451;-75
2022/02/23 15:23:52;;;;;;;9.77;9.27;;;12.60;91.10;;;;;;5072328;28;20462;-75
2022/02/23 15:26:18;;;;;;;9.73;9.23;;;12.50;91.20;;;;;;5072236;28;20458;-75
2022/02/23 15:28:45;;;;;;;9.77;9.23;;;12.50;91.40;;;;;;5072211;28;20447;-75
2022/02/23 15:31:15;;;;;;;10.63;9.67;;;12.50;91.10;;;;;;5072135;28;20494;-76
2022/02/23 15:33:42;;;;;;;10.90;10.17;;;12.50;91.30;;;;;;5072459;28;20454;-75
2022/02/23 15:36:09;;;;;;;11.07;10.30;;;12.50;91.20;;;;;;5072021;28;20455;-75
2022/02/23 15:38:36;;;;;;;10.40;9.43;;;12.50;91.40;;;;;;5072122;28;20458;-75
2022/02/23 15:41:02;;;;;;;9.60;9.10;;;12.50;91.10;;;;;;5071929;28;20451;-76
2022/02/23 15:43:29;;;;;;;10.07;9.27;;;12.60;91.10;;;;;;5072180;28;20462;-75
2022/02/23 15:45:56;;;;;;;9.80;9.30;;;12.50;91.10;;;;;;5072197;28;20460;-75
2022/02/23 15:48:24;;;;;;;9.60;9.00;;;12.50;91.40;;;;;;5071987;28;20454;-75
2022/02/23 15:50:52;;;;;;;10.10;9.60;;;12.50;91.40;;;;;;5071939;28;21016;-76
2022/02/23 15:53:19;;;;;;;10.43;9.63;;;12.40;91.40;;;;;;5071619;28;20956;-76
2022/02/23 15:55:46;;;;;;;10.43;9.57;;;12.40;91.40;;;;;;5071796;28;20462;-75
2022/02/23 15:58:12;;;;;;;9.20;8.80;;;12.40;91.50;;;;;;5071893;28;20447;-76
2022/02/23 16:00:40;;;;;;;9.37;8.73;;;12.40;91.40;;;;;;5071501;28;20458;-77
2022/02/23 16:03:07;;;;;;;9.47;8.93;;;12.40;91.50;;;;;;5071421;28;20474;-76
2022/02/23 16:05:36;;;;;;;10.27;9.47;;;12.30;91.70;;;;;;5071279;28;20524;-76
2022/02/23 16:08:03;;;;;;;9.10;8.60;;;12.30;92.10;;;;;;5071474;28;20454;-76
2022/02/23 16:10:30;;;;;;;10.13;9.20;;;12.30;92.10;;;;;;5071943;28;20479;-76
2022/02/23 16:12:56;;;;;;;9.40;8.70;;;12.20;92.40;;;;;;5071612;28;20486;-75
2022/02/23 16:15:23;;;;;;;10.03;9.63;;;12.10;92.20;;;;;;5071576;28;20792;-75
2022/02/23 16:17:51;;;;;;;10.83;10.20;;;12.00;92.50;;;;;;5071266;28;20447;-75
2022/02/23 16:20:18;;;;;;;10.87;10.03;;;12.00;92.90;;;;;;5071393;28;20483;-77
2022/02/23 16:22:46;;;;;;;9.97;9.30;;;11.80;93.00;;;;;;5071778;28;20447;-76
2022/02/23 16:25:14;;;;;;;10.37;9.77;;;11.70;92.90;;;;;;5071457;28;20443;-76
2022/02/23 16:27:40;;;;;;;11.07;10.27;;;11.60;93.30;;;;;;5071325;28;20459;-76
2022/02/23 16:30:08;;;;;;;11.87;10.93;;;11.50;93.80;;;;;;5071461;28;20462;-77
2022/02/23 16:32:35;;;;;;;10.83;10.23;;;11.40;94.10;;;;;;5071304;28;20767;-76
2022/02/23 16:35:01;;;;;;;10.43;10.03;;;11.20;94.40;;;;;;5071297;28;20818;-76
2022/02/23 16:37:28;;;;;;;11.00;10.20;;;11.10;95.10;;;;;;5071493;28;20473;-75
2022/02/23 16:39:56;;;;;;;10.90;10.30;;;11.00;95.60;;;;;;5071165;28;20528;-76
2022/02/23 16:42:23;;;;;;;11.27;10.17;;;11.00;95.90;;;;;;5071088;28;20446;-75
2022/02/23 16:44:50;;;;;;;11.30;10.50;;;11.00;96.40;;;;;;5071106;28;20667;-75
2022/02/23 16:47:19;;;;;;;11.93;10.70;;;10.90;96.50;;;;;;5071065;28;20451;-76
2022/02/23 16:49:45;;;;;;;11.87;11.00;;;10.90;97.20;;;;;;5071077;28;20451;-76
2022/02/23 16:52:12;;;;;;;14.20;10.80;;;10.80;97.90;;;;;;5070904;28;20494;-76
2022/02/23 16:54:39;;;;;;;10.83;10.23;;;10.70;98.60;;;;;;5070823;28;20454;-77
2022/02/23 16:57:08;;;;;;;12.30;10.67;;;10.60;99.30;;;;;;5070853;28;20452;-77
2022/02/23 16:59:35;;;;;;;11.30;10.60;;;10.40;99.90;;;;;;5070733;28;20454;-78
2022/02/23 17:02:02;;;;;;;10.83;10.13;;;10.10;99.90;;;;;;5070523;28;20463;-77
2022/02/23 17:04:29;;;;;;;11.80;11.10;;;9.90;99.90;;;;;;5071216;28;20930;-77
2022/02/23 17:06:55;;;;;;;13.33;12.10;;;9.80;99.90;;;;;;5071048;28;20458;-77
2022/02/23 17:09:22;;;;;;;11.80;11.10;;;9.60;99.90;;;;;;5069903;28;20470;-75
2022/02/23 17:11:49;;;;;;;13.03;11.93;;;9.40;99.90;;;;;;5071002;28;20486;-76
2022/02/23 17:14:17;;;;;;;12.13;11.03;;;9.30;99.90;;;;;;5070926;28;20451;-76
2022/02/23 17:16:44;;;;;;;10.00;9.50;;;9.40;99.90;;;;;;5070790;28;20458;-76
2022/02/23 17:19:11;;;;;;;10.43;9.93;;;9.50;99.90;;;;;;5070733;28;20489;-76
2022/02/23 17:21:38;;;;;;;10.63;9.93;;;9.50;99.90;;;;;;5070561;28;20546;-76
2022/02/23 17:24:05;;;;;;;11.53;10.63;;;9.40;99.90;;;;;;5070571;28;20448;-76
2022/02/23 17:26:32;;;;;;;12.40;11.30;;;9.30;99.90;;;;;;5070680;28;20458;-76
2022/02/23 17:28:59;;;;;;;15.07;11.30;;;9.20;99.90;;;;;;5070566;28;20451;-77
2022/02/23 17:31:27;;;;;;;12.73;11.97;;;9.00;99.90;;;;;;5070446;28;20439;-76
2022/02/23 17:33:54;;;;;;;13.17;11.83;;;8.80;99.90;;;;;;5070422;28;20447;-76
2022/02/23 17:36:21;;;;;;;14.77;11.40;;;8.60;99.90;;;;;;5070281;28;20455;-76
2022/02/23 17:38:48;;;;;;;13.00;12.03;;;8.60;99.90;;;;;;5070420;28;20518;-76
2022/02/23 17:41:15;;;;;;;12.00;9.97;;;8.50;99.90;;;;;;5070371;28;20500;-79
2022/02/23 17:43:42;;;;;;;12.40;11.13;;;8.40;99.90;;;;;;5070450;28;20954;-76
2022/02/23 17:46:09;;;;;;;14.40;12.60;;;8.50;99.90;;;;;;5070182;28;20795;-76
2022/02/23 17:48:37;;;;;;;15.30;12.80;;;8.50;99.90;;;;;;5069778;28;20451;-77
2022/02/23 17:51:04;;;;;;;14.97;12.80;;;8.50;99.90;;;;;;5070152;28;20548;-75
2022/02/23 17:53:31;;;;;;;13.90;11.73;;;8.60;99.90;;;;;;5070074;28;20561;-77
2022/02/23 17:55:57;;;;;;;11.73;10.93;;;8.60;99.90;;;;;;5070420;28;20466;-76
2022/02/23 17:58:24;;;;;;;12.00;11.10;;;8.70;99.90;;;;;;5069957;28;20475;-76
